Time;durP1;ratioP1;P1;durP2;ratioP2;P2;SDS_P1;SDS_P2;PMS_P1;PMS_P2;Temp;Humidity;BMP_temperature;BMP_pressure;BME280_temperature;BME280_humidity;BME280_pressure;Samples;Min_cycle;Max_cycle;Signal;HPM_P1;HPM_P2
2022/06/13 00:01:50;;;;;;;1.27;0.73;;;17.10;99.90;;;;;;5081210;28;20440;-64
2022/06/13 00:04:25;;;;;;;0.73;0.70;;;17.10;99.90;;;;;;5081447;28;20459;-64
2022/06/13 00:06:58;;;;;;;1.50;0.70;;;17.20;99.90;;;;;;5081306;28;20451;-63
2022/06/13 00:09:30;;;;;;;0.80;0.70;;;17.40;99.90;;;;;;5079831;28;20443;-65
2022/06/13 00:12:04;;;;;;;1.17;0.63;;;17.40;99.90;;;;;;5080293;28;20459;-64
2022/06/13 00:14:37;;;;;;;0.60;0.60;;;17.20;99.90;;;;;;5085729;28;20455;-64
2022/06/13 00:17:09;;;;;;;0.70;0.70;;;17.10;99.90;;;;;;5083148;28;21581;-63
2022/06/13 00:19:41;;;;;;;1.43;0.67;;;17.10;99.90;;;;;;5083758;28;20483;-63
2022/06/13 00:22:13;;;;;;;1.37;0.73;;;17.20;99.90;;;;;;5083929;28;20448;-63
2022/06/13 00:24:44;;;;;;;1.63;0.73;;;17.00;99.90;;;;;;5082927;28;20450;-64
2022/06/13 00:27:15;;;;;;;0.77;0.77;;;17.20;99.90;;;;;;5084032;28;20521;-63
2022/06/13 00:29:49;;;;;;;0.40;0.40;;;17.30;99.90;;;;;;5082490;28;20526;-64
2022/06/13 00:32:25;;;;;;;1.43;1.03;;;17.00;99.90;;;;;;5084065;28;20459;-64
2022/06/13 00:34:57;;;;;;;0.80;0.80;;;17.00;99.90;;;;;;5084387;28;20548;-64
2022/06/13 00:37:29;;;;;;;0.40;0.40;;;17.00;99.90;;;;;;5081086;28;20467;-64
2022/06/13 00:40:03;;;;;;;0.60;0.40;;;17.20;99.90;;;;;;5081774;28;20459;-65
2022/06/13 00:42:36;;;;;;;1.43;0.53;;;17.40;99.90;;;;;;5079360;28;20908;-64
2022/06/13 00:45:15;;;;;;;0.77;0.63;;;17.50;99.90;;;;;;5079673;28;20938;-66
2022/06/13 00:47:48;;;;;;;1.23;0.40;;;17.50;99.90;;;;;;5080541;28;20591;-66
2022/06/13 00:50:23;;;;;;;0.87;0.40;;;17.40;99.90;;;;;;5083388;28;20426;-65
2022/06/13 00:53:08;;;;;;;0.73;0.47;;;17.40;99.90;;;;;;5081866;28;20471;-64
2022/06/13 00:55:42;;;;;;;1.13;0.70;;;17.30;99.90;;;;;;5081489;28;20429;-63
2022/06/13 00:58:14;;;;;;;0.73;0.50;;;16.90;99.90;;;;;;5081353;28;21092;-65
2022/06/13 01:00:49;;;;;;;0.60;0.53;;;16.80;99.90;;;;;;5083480;28;20434;-64
2022/06/13 01:03:20;;;;;;;0.60;0.50;;;16.60;99.90;;;;;;5083727;28;20459;-64
2022/06/13 01:05:53;;;;;;;1.27;1.00;;;16.60;99.90;;;;;;5083664;28;20452;-64
2022/06/13 01:08:28;;;;;;;0.60;0.60;;;16.60;99.90;;;;;;5082944;28;20926;-64
2022/06/13 01:11:17;;;;;;;1.47;0.80;;;16.50;99.90;;;;;;5082049;28;20430;-65
2022/06/13 01:14:08;;;;;;;0.70;0.43;;;16.30;99.90;;;;;;5083321;28;20430;-64
2022/06/13 01:16:50;;;;;;;0.80;0.80;;;16.30;99.90;;;;;;5082297;28;20447;-64
2022/06/13 01:20:04;;;;;;;0.97;0.90;;;16.10;99.90;;;;;;5080257;28;20461;-64
2022/06/13 01:23:05;;;;;;;1.20;0.87;;;16.00;99.90;;;;;;5083246;28;20445;-65
2022/06/13 01:26:08;;;;;;;0.70;0.50;;;15.90;99.90;;;;;;5071331;28;20473;-65
2022/06/13 01:29:23;;;;;;;0.40;0.40;;;15.90;99.90;;;;;;5082439;28;20487;-64
2022/06/13 01:32:04;;;;;;;0.70;0.57;;;15.80;99.90;;;;;;5081927;28;20463;-64
2022/06/13 01:34:42;;;;;;;0.60;0.53;;;15.90;99.90;;;;;;5084094;28;20459;-63
2022/06/13 01:37:30;;;;;;;1.00;0.80;;;16.00;99.90;;;;;;5084338;28;20467;-64
2022/06/13 01:40:13;;;;;;;0.90;0.43;;;16.20;99.90;;;;;;5082464;28;20831;-63
2022/06/13 01:42:57;;;;;;;0.70;0.70;;;16.20;99.90;;;;;;5083118;28;20459;-64
2022/06/13 01:45:36;;;;;;;0.60;0.53;;;16.30;99.90;;;;;;5077814;28;20471;-64
2022/06/13 01:48:20;;;;;;;0.80;0.40;;;16.50;99.90;;;;;;5078834;28;20470;-64
2022/06/13 01:50:57;;;;;;;0.50;0.40;;;16.20;99.90;;;;;;5082923;28;20459;-63
2022/06/13 01:53:35;;;;;;;0.60;0.50;;;16.20;99.90;;;;;;5083159;28;20450;-64
2022/06/13 01:56:13;;;;;;;0.40;0.30;;;16.00;99.90;;;;;;5082107;28;20471;-65
2022/06/13 01:58:48;;;;;;;0.70;0.70;;;15.90;99.90;;;;;;5077521;28;20434;-65
2022/06/13 02:01:25;;;;;;;5.80;4.60;;;15.80;99.90;;;;;;5082071;28;20433;-63
2022/06/13 02:04:09;;;;;;;2.00;1.57;;;15.80;99.90;;;;;;5084599;28;20463;-62
2022/06/13 02:06:44;;;;;;;2.00;1.00;;;15.90;99.90;;;;;;5075517;28;20464;-63
2022/06/13 02:09:21;;;;;;;0.73;0.53;;;16.00;99.90;;;;;;5076918;28;20500;-63
2022/06/13 02:11:53;;;;;;;0.40;0.40;;;15.90;99.90;;;;;;5079705;28;20463;-64
2022/06/13 02:14:30;;;;;;;1.13;0.73;;;15.90;99.90;;;;;;5083151;28;20561;-64
2022/06/13 02:17:07;;;;;;;1.80;0.83;;;15.80;99.90;;;;;;5081773;28;20483;-64
2022/06/13 02:19:47;;;;;;;1.53;0.70;;;15.70;99.90;;;;;;5081714;28;20513;-63
2022/06/13 02:22:25;;;;;;;0.90;0.90;;;15.60;99.90;;;;;;5080596;28;20467;-62
2022/06/13 02:25:01;;;;;;;0.60;0.60;;;15.20;99.90;;;;;;5079193;28;20455;-61
2022/06/13 02:27:35;;;;;;;2.83;2.73;;;15.10;99.90;;;;;;5082516;28;20526;-64
2022/06/13 02:30:08;;;;;;;9.27;8.33;;;14.90;99.90;;;;;;5081138;28;20517;-66
2022/06/13 02:32:49;;;;;;;0.70;0.70;;;14.80;99.90;;;;;;5082307;28;20426;-66
2022/06/13 02:35:27;;;;;;;0.60;0.50;;;14.70;99.90;;;;;;5082441;28;20437;-66
2022/06/13 02:38:04;;;;;;;0.40;0.40;;;14.80;99.90;;;;;;5082326;28;20453;-65
2022/06/13 02:40:52;;;;;;;0.63;0.50;;;14.90;99.90;;;;;;5080662;28;20455;-66
2022/06/13 02:43:28;;;;;;;0.50;0.50;;;15.00;99.90;;;;;;5082171;28;20447;-66
2022/06/13 02:46:03;;;;;;;0.43;0.30;;;15.00;99.90;;;;;;5081588;28;20866;-66
2022/06/13 02:48:39;;;;;;;0.40;0.20;;;14.80;99.90;;;;;;5081332;28;20463;-66
2022/06/13 02:51:22;;;;;;;0.40;0.40;;;14.60;99.90;;;;;;5081253;28;20471;-66
2022/06/13 02:54:00;;;;;;;1.13;0.47;;;14.60;99.90;;;;;;5078771;28;20447;-64
2022/06/13 02:57:23;;;;;;;1.07;0.30;;;14.50;99.90;;;;;;5080035;28;20460;-64
2022/06/13 02:59:41;;;;;;;1.17;0.50;;;14.40;99.90;;;;;;5081506;28;20450;-64
2022/06/13 03:02:32;;;;;;;0.50;0.50;;;14.40;99.90;;;;;;5080827;28;20551;-64
2022/06/13 03:05:10;;;;;;;1.60;0.50;;;14.30;99.90;;;;;;5050303;28;20455;-65
2022/06/13 03:07:52;;;;;;;0.50;0.40;;;14.30;99.90;;;;;;5081859;28;20447;-64
2022/06/13 03:10:29;;;;;;;0.60;0.50;;;14.30;99.90;;;;;;5077910;28;20487;-65
2022/06/13 03:13:42;;;;;;;0.70;0.50;;;14.20;99.90;;;;;;5080998;28;20444;-65
2022/06/13 03:16:20;;;;;;;0.90;0.30;;;14.20;99.90;;;;;;5073866;28;20542;-66
2022/06/13 03:23:17;;;;;;;0.77;0.40;;;14.20;99.90;;;;;;5068854;28;20527;-66
2022/06/13 03:25:52;;;;;;;0.60;0.60;;;14.10;99.90;;;;;;5079851;28;20470;-65
2022/06/13 03:28:27;;;;;;;0.50;0.43;;;14.00;99.90;;;;;;5080361;28;20470;-65
2022/06/13 03:31:02;;;;;;;0.40;0.30;;;14.00;99.90;;;;;;5080448;28;20482;-66
2022/06/13 03:33:42;;;;;;;0.40;0.30;;;13.90;99.90;;;;;;5073097;28;20516;-66
2022/06/13 03:36:19;;;;;;;0.50;0.33;;;13.80;99.90;;;;;;5078555;28;20443;-66
2022/06/13 03:39:02;;;;;;;0.40;0.40;;;13.80;99.90;;;;;;5080184;28;20459;-66
2022/06/13 03:41:36;;;;;;;0.40;0.33;;;13.80;99.90;;;;;;5076779;28;20468;-64
2022/06/13 03:44:19;;;;;;;0.50;0.40;;;13.70;99.90;;;;;;5079718;28;20845;-67
2022/06/13 03:46:58;;;;;;;0.40;0.30;;;13.60;99.90;;;;;;5080916;28;20451;-65
2022/06/13 03:49:46;;;;;;;0.63;0.47;;;13.50;99.90;;;;;;5090020;28;20495;-63
2022/06/13 03:52:19;;;;;;;1.07;0.30;;;13.40;99.90;;;;;;5084180;28;20455;-65
2022/06/13 03:58:46;;;;;;;0.30;0.20;;;13.20;99.90;;;;;;5035101;28;20462;-65
2022/06/13 04:01:20;;;;;;;0.40;0.30;;;13.10;99.90;;;;;;5041662;28;20437;-65
2022/06/13 04:03:51;;;;;;;0.60;0.47;;;12.90;99.90;;;;;;5042006;28;20453;-63
2022/06/13 04:06:37;;;;;;;1.00;0.47;;;12.90;99.90;;;;;;5041645;28;20469;-63
2022/06/13 04:09:12;;;;;;;0.40;0.40;;;12.80;99.90;;;;;;5045967;28;20456;-64
2022/06/13 04:12:04;;;;;;;0.40;0.30;;;12.80;99.90;;;;;;5044836;28;20843;-64
2022/06/13 04:14:56;;;;;;;0.40;0.30;;;12.70;99.90;;;;;;5044893;28;20464;-64
2022/06/13 04:17:35;;;;;;;0.60;0.30;;;12.80;99.90;;;;;;5041794;28;20483;-64
2022/06/13 04:20:16;;;;;;;0.50;0.30;;;12.70;99.90;;;;;;5044065;28;21052;-64
2022/06/13 04:22:54;;;;;;;0.63;0.40;;;12.70;99.90;;;;;;5040976;28;20500;-64
2022/06/13 04:25:38;;;;;;;0.40;0.40;;;12.70;99.90;;;;;;5044003;28;20591;-64
2022/06/13 04:28:18;;;;;;;0.50;0.40;;;12.70;99.90;;;;;;5035092;28;20457;-64
2022/06/13 04:30:55;;;;;;;0.60;0.40;;;12.70;99.90;;;;;;5083085;28;20582;-64
2022/06/13 04:33:33;;;;;;;0.53;0.50;;;12.80;99.90;;;;;;5084247;28;20451;-64
2022/06/13 04:36:08;;;;;;;0.60;0.60;;;12.70;99.90;;;;;;5084357;28;20850;-64
2022/06/13 04:38:42;;;;;;;0.60;0.60;;;12.60;99.90;;;;;;5083859;28;20554;-64
2022/06/13 04:41:14;;;;;;;1.63;0.80;;;12.60;99.90;;;;;;5082660;28;20464;-64
2022/06/13 04:43:49;;;;;;;0.60;0.60;;;12.70;99.90;;;;;;5073043;28;20451;-64
2022/06/13 04:46:23;;;;;;;1.63;0.73;;;12.70;99.90;;;;;;5071195;28;20458;-64
2022/06/13 04:48:56;;;;;;;1.40;0.70;;;12.80;99.90;;;;;;5084586;28;20475;-64
2022/06/13 04:51:30;;;;;;;0.60;0.50;;;12.70;99.90;;;;;;5083441;28;20483;-64
2022/06/13 04:54:06;;;;;;;1.10;0.70;;;12.80;99.90;;;;;;5069176;28;20518;-66
2022/06/13 04:56:37;;;;;;;1.23;0.87;;;12.80;99.90;;;;;;5075343;28;20478;-64
2022/06/13 04:59:15;;;;;;;0.57;0.47;;;12.80;99.90;;;;;;5076801;28;20478;-64
2022/06/13 05:01:59;;;;;;;0.53;0.50;;;12.80;99.90;;;;;;5083458;28;20455;-63
2022/06/13 05:04:32;;;;;;;1.63;0.50;;;12.70;99.90;;;;;;5084468;28;20486;-64
2022/06/13 05:07:12;;;;;;;1.00;0.50;;;12.70;99.90;;;;;;5081512;28;20836;-64
2022/06/13 05:09:45;;;;;;;0.40;0.40;;;12.70;99.90;;;;;;5079571;28;20459;-63
2022/06/13 05:12:23;;;;;;;1.23;0.30;;;12.70;99.90;;;;;;5083897;28;20780;-65
2022/06/13 05:15:04;;;;;;;0.70;0.50;;;12.60;99.90;;;;;;5083818;28;20469;-63
2022/06/13 05:18:01;;;;;;;0.60;0.40;;;12.60;99.90;;;;;;5084048;28;20471;-64
2022/06/13 05:20:46;;;;;;;0.57;0.30;;;12.60;99.90;;;;;;5070839;28;20471;-64
2022/06/13 05:23:52;;;;;;;0.50;0.50;;;12.60;99.90;;;;;;5081178;28;20451;-64
2022/06/13 05:26:28;;;;;;;0.40;0.30;;;12.50;99.90;;;;;;5081508;28;20451;-65
2022/06/13 05:29:00;;;;;;;0.50;0.50;;;12.50;99.90;;;;;;5084349;28;20492;-64
2022/06/13 05:31:31;;;;;;;1.20;0.47;;;12.60;99.90;;;;;;5077661;28;20488;-64
2022/06/13 05:34:10;;;;;;;0.50;0.40;;;12.40;99.90;;;;;;5086279;28;20459;-64
2022/06/13 05:36:43;;;;;;;1.90;0.77;;;12.40;99.90;;;;;;5082896;28;20577;-64
2022/06/13 05:39:16;;;;;;;0.60;0.60;;;12.50;99.90;;;;;;5083810;28;20513;-64
2022/06/13 05:41:56;;;;;;;0.70;0.60;;;12.40;99.90;;;;;;5081851;28;20517;-64
2022/06/13 05:44:27;;;;;;;0.60;0.60;;;12.40;99.90;;;;;;5067787;28;20467;-64
2022/06/13 05:46:58;;;;;;;0.90;0.80;;;12.50;99.90;;;;;;5083761;28;20768;-64
2022/06/13 05:49:31;;;;;;;0.67;0.50;;;12.40;99.90;;;;;;5084204;28;20625;-64
2022/06/13 05:52:02;;;;;;;0.50;0.50;;;12.40;99.90;;;;;;5082892;28;20487;-64
2022/06/13 05:54:33;;;;;;;1.17;0.40;;;12.40;99.90;;;;;;5079579;28;20634;-64
2022/06/13 05:57:04;;;;;;;0.60;0.47;;;12.40;99.90;;;;;;5082509;28;20512;-64
2022/06/13 05:59:35;;;;;;;0.40;0.40;;;12.40;99.90;;;;;;5083233;28;20467;-64
2022/06/13 06:02:06;;;;;;;0.50;0.40;;;12.50;99.90;;;;;;5082627;28;20464;-64
2022/06/13 06:04:39;;;;;;;0.57;0.33;;;12.60;99.90;;;;;;5082937;28;20460;-64
2022/06/13 06:07:10;;;;;;;0.53;0.50;;;12.60;99.90;;;;;;5082551;28;20494;-64
2022/06/13 06:09:49;;;;;;;0.60;0.50;;;12.60;99.90;;;;;;5081087;28;20474;-64
2022/06/13 06:12:30;;;;;;;0.57;0.50;;;12.40;99.90;;;;;;5078789;28;20503;-64
2022/06/13 06:15:01;;;;;;;1.00;0.50;;;12.40;99.90;;;;;;5081860;28;20487;-65
2022/06/13 06:17:32;;;;;;;2.63;0.70;;;12.40;99.90;;;;;;5083512;28;20436;-64
2022/06/13 06:20:05;;;;;;;0.90;0.57;;;12.30;99.90;;;;;;5082690;28;20479;-64
2022/06/13 06:22:36;;;;;;;0.47;0.47;;;12.30;99.90;;;;;;5072495;28;20497;-64
2022/06/13 06:25:09;;;;;;;0.60;0.60;;;12.30;99.90;;;;;;5082426;28;20471;-64
2022/06/13 06:27:40;;;;;;;0.50;0.40;;;12.30;99.90;;;;;;5081669;28;20474;-64
2022/06/13 06:30:16;;;;;;;0.87;0.70;;;12.30;99.90;;;;;;5082267;28;20451;-64
2022/06/13 06:32:48;;;;;;;0.53;0.53;;;12.40;99.90;;;;;;5079326;28;20459;-64
2022/06/13 06:35:20;;;;;;;1.00;0.60;;;12.30;99.90;;;;;;5082274;28;20472;-64
2022/06/13 06:37:53;;;;;;;0.60;0.50;;;12.30;99.90;;;;;;5082593;28;20478;-64
2022/06/13 06:40:25;;;;;;;0.63;0.63;;;12.20;99.90;;;;;;5079861;28;20463;-64
2022/06/13 06:42:57;;;;;;;0.60;0.60;;;12.20;99.90;;;;;;5070765;28;20586;-64
2022/06/13 06:45:28;;;;;;;0.60;0.43;;;12.20;99.90;;;;;;5082268;28;20505;-64
2022/06/13 06:48:00;;;;;;;0.97;0.90;;;12.20;99.90;;;;;;5082203;28;20474;-64
2022/06/13 06:50:35;;;;;;;0.50;0.50;;;12.20;99.90;;;;;;5080664;28;20463;-64
2022/06/13 06:53:06;;;;;;;0.40;0.30;;;12.20;99.90;;;;;;5082081;28;20469;-64
2022/06/13 07:02:14;;;;;;;0.57;0.57;;;12.10;99.90;;;;;;5081872;28;20466;-64
2022/06/13 07:04:46;;;;;;;0.47;0.40;;;12.10;99.90;;;;;;5073661;28;20490;-64
2022/06/13 07:07:19;;;;;;;0.50;0.40;;;12.00;99.90;;;;;;5081127;28;20463;-64
2022/06/13 07:09:50;;;;;;;1.80;0.53;;;12.00;99.90;;;;;;5080394;28;20459;-65
2022/06/13 07:12:21;;;;;;;0.50;0.47;;;12.00;99.90;;;;;;5082748;28;20490;-64
2022/06/13 07:14:52;;;;;;;0.77;0.60;;;11.90;99.90;;;;;;5062510;28;20474;-64
2022/06/13 07:17:25;;;;;;;0.57;0.50;;;11.80;99.90;;;;;;5082124;28;20470;-64
2022/06/13 07:19:56;;;;;;;0.70;0.30;;;11.90;99.90;;;;;;5078742;28;20574;-64
2022/06/13 07:22:30;;;;;;;0.40;0.20;;;11.90;99.90;;;;;;5082413;28;20550;-64
2022/06/13 07:25:01;;;;;;;1.17;0.30;;;11.90;99.90;;;;;;5077641;28;20451;-64
2022/06/13 07:27:32;;;;;;;0.50;0.40;;;11.80;99.90;;;;;;5085662;28;20474;-63
2022/06/13 07:30:06;;;;;;;0.73;0.50;;;11.90;99.90;;;;;;5078339;28;20463;-64
2022/06/13 07:32:37;;;;;;;0.40;0.33;;;11.90;99.90;;;;;;5084818;28;20487;-63
2022/06/13 07:35:15;;;;;;;0.57;0.57;;;11.90;99.90;;;;;;5077802;28;20477;-63
2022/06/13 07:41:31;;;;;;;0.60;0.60;;;11.90;99.90;;;;;;5084556;28;20470;-63
2022/06/13 07:44:06;;;;;;;0.70;0.70;;;11.90;99.90;;;;;;5085232;28;20818;-63
2022/06/13 07:46:39;;;;;;;0.90;0.50;;;12.00;99.90;;;;;;5085531;28;20443;-63
2022/06/13 07:49:11;;;;;;;0.70;0.50;;;11.90;99.90;;;;;;5085763;28;20466;-63
2022/06/13 07:51:42;;;;;;;0.50;0.50;;;11.90;99.90;;;;;;5085547;28;20482;-64
2022/06/13 07:54:13;;;;;;;1.10;0.50;;;11.90;99.90;;;;;;5085182;28;20459;-63
2022/06/13 07:56:49;;;;;;;0.50;0.50;;;11.90;99.90;;;;;;5084673;28;20455;-63
2022/06/13 07:59:29;;;;;;;0.50;0.50;;;12.00;99.90;;;;;;5084031;28;20465;-63
2022/06/13 08:02:02;;;;;;;0.93;0.50;;;12.00;99.90;;;;;;5073543;28;20489;-63
2022/06/13 08:04:33;;;;;;;0.73;0.50;;;12.00;99.90;;;;;;5082062;28;20799;-63
2022/06/13 08:07:27;;;;;;;0.47;0.37;;;11.90;99.90;;;;;;5081228;28;20443;-63
2022/06/13 08:09:58;;;;;;;2.10;0.50;;;11.90;99.90;;;;;;5084432;28;20444;-63
2022/06/13 08:12:31;;;;;;;0.40;0.40;;;11.80;99.90;;;;;;5084890;28;20505;-63
2022/06/13 08:15:04;;;;;;;0.40;0.30;;;11.80;99.90;;;;;;5084471;28;20470;-63
2022/06/13 08:17:35;;;;;;;0.57;0.50;;;11.80;99.90;;;;;;5085060;28;20459;-63
2022/06/13 08:20:08;;;;;;;1.03;0.50;;;11.80;99.90;;;;;;5078864;28;20561;-63
2022/06/13 08:22:46;;;;;;;0.40;0.40;;;11.70;99.90;;;;;;5085168;28;20457;-63
2022/06/13 08:25:26;;;;;;;0.30;0.20;;;11.60;99.90;;;;;;5083688;28;20425;-63
2022/06/13 08:27:59;;;;;;;0.30;0.30;;;11.60;99.90;;;;;;5084778;28;20451;-63
2022/06/13 08:30:39;;;;;;;0.60;0.47;;;11.60;99.90;;;;;;5084527;28;20477;-63
2022/06/13 08:33:10;;;;;;;0.40;0.40;;;11.70;99.90;;;;;;5084119;28;20486;-63
2022/06/13 08:35:41;;;;;;;2.47;0.50;;;11.70;99.90;;;;;;5068503;28;20452;-63
2022/06/13 08:38:15;;;;;;;0.70;0.50;;;11.70;99.90;;;;;;5084780;28;20435;-64
2022/06/13 08:40:52;;;;;;;0.77;0.40;;;11.70;99.90;;;;;;5084134;28;20436;-63
2022/06/13 08:43:42;;;;;;;1.70;0.50;;;11.60;99.90;;;;;;5084302;28;20451;-63
2022/06/13 08:46:20;;;;;;;0.60;0.60;;;11.80;99.90;;;;;;5083873;28;20506;-63
2022/06/13 08:48:59;;;;;;;0.37;0.30;;;11.80;99.90;;;;;;5084531;28;20509;-63
2022/06/13 08:51:39;;;;;;;0.53;0.50;;;11.70;99.90;;;;;;5083715;28;20452;-62
2022/06/13 08:54:13;;;;;;;1.43;0.47;;;11.80;99.90;;;;;;5083766;28;20462;-63
2022/06/13 08:56:45;;;;;;;0.80;0.80;;;11.70;99.90;;;;;;5075184;28;20456;-63
2022/06/13 08:59:25;;;;;;;0.40;0.40;;;11.80;99.90;;;;;;5080167;28;20471;-63
2022/06/13 09:02:04;;;;;;;0.43;0.30;;;11.70;99.90;;;;;;5084292;28;20940;-63
2022/06/13 09:04:40;;;;;;;0.40;0.40;;;11.80;99.90;;;;;;5065966;28;20958;-63
2022/06/13 09:07:17;;;;;;;2.63;0.60;;;11.70;99.90;;;;;;5083713;28;20456;-63
2022/06/13 09:09:54;;;;;;;1.07;0.40;;;11.70;99.90;;;;;;5083089;28;21892;-63
2022/06/13 09:12:31;;;;;;;0.47;0.33;;;11.70;99.90;;;;;;5083928;28;20487;-63
2022/06/13 09:15:14;;;;;;;0.90;0.60;;;11.70;99.90;;;;;;5083283;28;20455;-63
2022/06/13 09:17:54;;;;;;;1.03;0.40;;;11.70;99.90;;;;;;5084084;28;20470;-63
2022/06/13 09:20:36;;;;;;;0.53;0.40;;;11.60;99.90;;;;;;5083920;28;20543;-63
2022/06/13 09:23:21;;;;;;;0.33;0.20;;;11.60;99.90;;;;;;5084308;28;20448;-63
2022/06/13 09:26:02;;;;;;;0.50;0.30;;;11.60;99.90;;;;;;5082182;28;20512;-63
2022/06/13 09:28:40;;;;;;;0.50;0.30;;;11.60;99.90;;;;;;5083448;28;20534;-63
2022/06/13 09:31:16;;;;;;;0.40;0.30;;;11.60;99.90;;;;;;5083141;28;20459;-63
2022/06/13 09:33:52;;;;;;;0.60;0.30;;;11.60;99.90;;;;;;5083441;28;20639;-63
2022/06/13 09:36:31;;;;;;;3.07;0.33;;;11.60;99.90;;;;;;5065139;28;20455;-63
2022/06/13 09:39:07;;;;;;;0.53;0.53;;;11.50;99.90;;;;;;5083336;28;20440;-63
2022/06/13 09:42:31;;;;;;;0.40;0.37;;;11.60;99.90;;;;;;5083018;28;20440;-63
2022/06/13 09:45:28;;;;;;;1.43;0.60;;;11.50;99.90;;;;;;4961333;28;20441;-64
2022/06/13 09:48:09;;;;;;;0.63;0.50;;;11.50;99.90;;;;;;4956767;29;20547;-63
2022/06/13 09:50:46;;;;;;;0.70;0.40;;;11.60;99.90;;;;;;4962446;29;20472;-63
2022/06/13 09:53:25;;;;;;;0.50;0.40;;;11.60;99.90;;;;;;4962500;29;20597;-63
2022/06/13 09:56:03;;;;;;;0.50;0.50;;;11.60;99.90;;;;;;4964076;28;20469;-63
2022/06/13 09:58:51;;;;;;;0.47;0.30;;;11.60;99.90;;;;;;4962726;29;20679;-63
2022/06/13 10:01:29;;;;;;;0.40;0.30;;;11.60;99.90;;;;;;4961792;29;21003;-63
2022/06/13 10:04:06;;;;;;;0.60;0.50;;;11.50;99.90;;;;;;4962573;29;21007;-63
2022/06/13 10:06:46;;;;;;;0.40;0.30;;;11.50;99.90;;;;;;4961633;29;20449;-63
2022/06/13 10:09:34;;;;;;;0.40;0.40;;;11.50;99.90;;;;;;4947563;29;20532;-63
2022/06/13 10:12:33;;;;;;;0.60;0.43;;;11.50;99.90;;;;;;4962408;28;20459;-63
2022/06/13 10:15:19;;;;;;;0.40;0.20;;;11.50;99.90;;;;;;4961944;28;20456;-63
2022/06/13 10:18:07;;;;;;;0.70;0.33;;;11.50;99.90;;;;;;4960589;29;20939;-63
2022/06/13 10:20:45;;;;;;;0.60;0.40;;;11.50;99.90;;;;;;5018716;28;20440;-63
2022/06/13 10:23:26;;;;;;;0.60;0.43;;;11.40;99.90;;;;;;5066458;28;20454;-63
2022/06/13 10:26:08;;;;;;;0.50;0.30;;;11.30;99.90;;;;;;5081595;28;20451;-63
2022/06/13 10:28:57;;;;;;;0.40;0.33;;;11.30;99.90;;;;;;5082645;28;20462;-64
2022/06/13 10:31:39;;;;;;;0.40;0.40;;;11.30;99.90;;;;;;5067127;28;20463;-63
2022/06/13 10:34:25;;;;;;;0.93;0.40;;;11.40;99.90;;;;;;5082189;28;20559;-64
2022/06/13 10:37:07;;;;;;;1.60;0.30;;;11.40;99.90;;;;;;5060464;28;20510;-63
2022/06/13 10:39:38;;;;;;;0.97;0.40;;;11.30;99.90;;;;;;5068593;28;20457;-63
2022/06/13 10:42:12;;;;;;;0.50;0.50;;;11.30;99.90;;;;;;5081586;28;20467;-63
2022/06/13 10:44:43;;;;;;;1.57;0.50;;;11.30;99.90;;;;;;5082676;28;20451;-63
2022/06/13 10:47:21;;;;;;;0.40;0.30;;;11.20;99.90;;;;;;5082071;28;20559;-63
2022/06/13 10:49:56;;;;;;;0.60;0.50;;;11.30;99.90;;;;;;5082374;28;20451;-64
2022/06/13 10:52:33;;;;;;;0.87;0.40;;;11.20;99.90;;;;;;5082094;28;20461;-63
2022/06/13 10:55:09;;;;;;;0.90;0.60;;;11.30;99.90;;;;;;5074895;28;20460;-63
2022/06/13 10:57:44;;;;;;;0.67;0.67;;;11.30;99.90;;;;;;5068488;28;20485;-64
2022/06/13 11:00:21;;;;;;;0.63;0.23;;;11.20;99.90;;;;;;5082224;28;20455;-63
2022/06/13 11:02:52;;;;;;;0.70;0.37;;;11.20;99.90;;;;;;5082299;28;20463;-63
2022/06/13 11:05:28;;;;;;;0.43;0.43;;;11.20;99.90;;;;;;5081840;28;20477;-63
2022/06/13 11:08:16;;;;;;;0.30;0.23;;;11.20;99.90;;;;;;5081890;28;20460;-63
2022/06/13 11:11:04;;;;;;;0.47;0.30;;;11.20;99.90;;;;;;5074980;28;20455;-63
2022/06/13 11:13:38;;;;;;;0.50;0.50;;;11.20;99.90;;;;;;5081835;28;20826;-63
2022/06/13 11:25:27;;;;;;;0.80;0.30;;;11.10;99.90;;;;;;5081504;28;20503;-63
2022/06/13 11:28:21;;;;;;;0.40;0.20;;;11.20;99.90;;;;;;5078899;28;20448;-63
2022/06/13 11:30:54;;;;;;;1.00;0.50;;;11.10;99.90;;;;;;5081690;28;20458;-63
2022/06/13 11:33:36;;;;;;;0.47;0.37;;;11.10;99.90;;;;;;5081945;28;20582;-63
2022/06/13 11:36:23;;;;;;;1.27;0.37;;;11.10;99.90;;;;;;5081380;28;20463;-63
2022/06/13 11:38:58;;;;;;;0.40;0.30;;;11.10;99.90;;;;;;5082091;28;20459;-63
2022/06/13 11:41:37;;;;;;;0.40;0.30;;;11.10;99.90;;;;;;5080660;28;20461;-63
2022/06/13 11:44:10;;;;;;;0.63;0.60;;;11.10;99.90;;;;;;5081592;28;21089;-63
2022/06/13 11:46:44;;;;;;;0.47;0.30;;;11.10;99.90;;;;;;5065949;28;20444;-63
2022/06/13 11:49:35;;;;;;;0.40;0.30;;;11.10;99.90;;;;;;5082120;28;20966;-63
2022/06/13 11:55:19;;;;;;;0.40;0.40;;;11.10;99.90;;;;;;5079753;28;20486;-63
2022/06/13 11:57:56;;;;;;;0.70;0.60;;;11.10;99.90;;;;;;5081764;28;20945;-63
2022/06/13 12:00:39;;;;;;;0.43;0.30;;;11.10;99.90;;;;;;5080863;28;20862;-63
2022/06/13 12:03:21;;;;;;;1.13;0.43;;;11.10;99.90;;;;;;5081835;28;20448;-63
2022/06/13 12:06:00;;;;;;;0.80;0.47;;;11.00;99.90;;;;;;5081814;28;20456;-63
2022/06/13 12:08:32;;;;;;;0.40;0.30;;;11.00;99.90;;;;;;5082413;28;20470;-63
2022/06/13 12:11:21;;;;;;;0.40;0.23;;;11.10;99.90;;;;;;5085253;28;20454;-63
2022/06/13 12:13:58;;;;;;;0.50;0.30;;;11.00;99.90;;;;;;5085831;28;20487;-63
2022/06/13 12:16:36;;;;;;;0.40;0.40;;;11.10;99.90;;;;;;5085213;28;20451;-63
2022/06/13 12:19:20;;;;;;;0.40;0.20;;;11.10;99.90;;;;;;5070001;28;20486;-62
2022/06/13 12:21:57;;;;;;;0.40;0.37;;;11.00;99.90;;;;;;5085204;28;20573;-62
2022/06/13 12:24:36;;;;;;;0.50;0.40;;;11.10;99.90;;;;;;5085363;28;20451;-62
2022/06/13 12:27:19;;;;;;;0.90;0.40;;;11.00;99.90;;;;;;5084170;28;20451;-62
2022/06/13 12:30:10;;;;;;;0.40;0.30;;;10.90;99.90;;;;;;5085165;28;20538;-62
2022/06/13 12:32:48;;;;;;;0.50;0.50;;;10.90;99.90;;;;;;5084714;28;20454;-62
2022/06/13 12:35:34;;;;;;;0.67;0.50;;;11.00;99.90;;;;;;5084421;28;20528;-62
2022/06/13 12:38:16;;;;;;;0.60;0.40;;;10.90;99.90;;;;;;5071021;28;20451;-62
2022/06/13 12:41:01;;;;;;;0.40;0.30;;;10.90;99.90;;;;;;5084142;28;20451;-62
2022/06/13 12:43:50;;;;;;;2.00;0.40;;;10.90;99.90;;;;;;5084356;28;20479;-62
2022/06/13 12:46:46;;;;;;;0.40;0.37;;;10.90;99.90;;;;;;5084594;28;20454;-62
2022/06/13 12:49:40;;;;;;;0.50;0.27;;;11.00;99.90;;;;;;5084077;28;20534;-61
2022/06/13 12:52:20;;;;;;;0.80;0.47;;;11.00;99.90;;;;;;5083937;28;20947;-62
2022/06/13 12:54:57;;;;;;;0.50;0.50;;;11.10;99.90;;;;;;5078546;28;20487;-62
2022/06/13 12:58:04;;;;;;;0.50;0.30;;;11.00;99.90;;;;;;5063964;28;20459;-62
2022/06/13 13:00:48;;;;;;;0.40;0.33;;;11.00;99.90;;;;;;5007198;28;20461;-62
2022/06/13 13:03:56;;;;;;;0.40;0.30;;;11.00;99.90;;;;;;5021553;28;20461;-62
2022/06/13 13:06:38;;;;;;;0.40;0.20;;;11.00;99.90;;;;;;5016994;28;20534;-63
2022/06/13 13:09:27;;;;;;;0.30;0.30;;;11.00;99.90;;;;;;5020258;28;20496;-63
2022/06/13 13:12:16;;;;;;;0.67;0.40;;;11.00;99.90;;;;;;5022625;28;20489;-62
2022/06/13 13:14:56;;;;;;;0.37;0.37;;;11.10;99.90;;;;;;5021914;28;20490;-63
2022/06/13 13:17:38;;;;;;;0.63;0.40;;;11.20;99.90;;;;;;5021907;28;20808;-63
2022/06/13 13:20:18;;;;;;;0.63;0.30;;;11.20;99.90;;;;;;5020209;28;20495;-63
2022/06/13 13:22:56;;;;;;;0.40;0.30;;;11.30;99.90;;;;;;5017996;28;20486;-63
2022/06/13 13:25:49;;;;;;;0.50;0.40;;;11.50;99.90;;;;;;5015379;28;20454;-63
2022/06/13 13:28:33;;;;;;;0.40;0.30;;;11.50;99.90;;;;;;5020387;28;20454;-63
2022/06/13 13:31:08;;;;;;;3.30;0.50;;;11.50;99.90;;;;;;5019628;28;20462;-63
2022/06/13 13:33:56;;;;;;;0.50;0.40;;;11.50;99.90;;;;;;5020783;28;20516;-63
2022/06/13 13:36:43;;;;;;;0.60;0.40;;;11.50;99.90;;;;;;5057208;28;20500;-63
2022/06/13 13:39:25;;;;;;;0.40;0.30;;;11.60;99.90;;;;;;5083682;28;20919;-63
2022/06/13 13:42:05;;;;;;;0.70;0.40;;;11.60;99.90;;;;;;5081005;28;20578;-65
2022/06/13 13:44:43;;;;;;;0.50;0.43;;;11.70;99.90;;;;;;5082370;28;20458;-63
2022/06/13 13:47:27;;;;;;;0.60;0.30;;;11.70;99.90;;;;;;5082311;28;20471;-63
2022/06/13 13:50:03;;;;;;;1.90;0.57;;;11.80;99.90;;;;;;5081813;28;20463;-63
2022/06/13 13:52:40;;;;;;;0.40;0.30;;;11.80;99.90;;;;;;5065532;28;20455;-63
2022/06/13 13:55:18;;;;;;;0.47;0.47;;;11.90;99.90;;;;;;5081255;28;21056;-64
2022/06/13 13:57:54;;;;;;;0.50;0.40;;;12.10;99.90;;;;;;5087425;28;20972;-65
2022/06/13 14:00:34;;;;;;;0.50;0.50;;;12.10;99.90;;;;;;5083808;28;20465;-63
2022/06/13 14:03:16;;;;;;;0.60;0.60;;;12.30;99.90;;;;;;5081820;28;20463;-63
2022/06/13 14:05:53;;;;;;;0.50;0.50;;;12.50;99.90;;;;;;5080528;28;20513;-64
2022/06/13 14:08:27;;;;;;;0.60;0.50;;;12.50;99.90;;;;;;5082424;28;20447;-64
2022/06/13 14:11:00;;;;;;;0.80;0.50;;;12.60;99.90;;;;;;5080633;28;20493;-63
2022/06/13 14:13:33;;;;;;;0.33;0.30;;;12.70;99.90;;;;;;5081361;28;20455;-64
2022/06/13 14:16:11;;;;;;;1.47;0.33;;;12.80;99.90;;;;;;5079788;28;20489;-62
2022/06/13 14:19:12;;;;;;;0.30;0.30;;;12.80;99.90;;;;;;5079066;28;20495;-63